Time;durP1;ratioP1;P1;durP2;ratioP2;P2;SDS_P1;SDS_P2;PMS_P1;PMS_P2;Temp;Humidity;BMP_temperature;BMP_pressure;BME280_temperature;BME280_humidity;BME280_pressure;Samples;Min_cycle;Max_cycle;Signal;HPM_P1;HPM_P2
2022/05/09 00:00:20;;;;;;;5.55;4.40;;;15.80;99.90;;;;;;7393735;19;20198;-76
2022/05/09 00:02:46;;;;;;;6.78;4.53;;;15.70;99.90;;;;;;7395474;19;20190;-75
2022/05/09 00:05:16;;;;;;;5.68;4.57;;;15.80;99.90;;;;;;7395528;19;20127;-77
2022/05/09 00:07:42;;;;;;;7.43;4.28;;;15.90;99.90;;;;;;7395818;19;20126;-76
2022/05/09 00:10:10;;;;;;;6.85;4.57;;;15.80;99.90;;;;;;7393758;19;20618;-74
2022/05/09 00:12:36;;;;;;;7.80;4.38;;;15.50;99.90;;;;;;7393490;19;20135;-75
2022/05/09 00:15:03;;;;;;;5.20;4.30;;;15.50;99.90;;;;;;7393749;19;20151;-75
2022/05/09 00:17:29;;;;;;;5.53;4.32;;;15.50;99.90;;;;;;7393616;19;20521;-74
2022/05/09 00:19:55;;;;;;;4.90;4.28;;;15.60;99.90;;;;;;7391318;19;20150;-76
2022/05/09 00:22:21;;;;;;;5.28;4.55;;;15.30;99.90;;;;;;7395621;19;20601;-74
2022/05/09 00:24:46;;;;;;;5.25;4.20;;;15.50;99.90;;;;;;7391677;19;20123;-74
2022/05/09 00:27:12;;;;;;;5.43;4.50;;;15.60;99.90;;;;;;7392097;19;20126;-74
2022/05/09 00:29:38;;;;;;;4.57;4.00;;;15.60;99.90;;;;;;7389600;19;20135;-74
2022/05/09 00:32:04;;;;;;;5.85;4.20;;;15.60;99.90;;;;;;7391574;19;20130;-74
2022/05/09 00:34:30;;;;;;;6.05;4.00;;;15.70;99.90;;;;;;7392399;19;20165;-75
2022/05/09 00:36:57;;;;;;;5.85;4.35;;;15.70;99.90;;;;;;7390880;19;20549;-75
2022/05/09 00:39:23;;;;;;;5.75;4.30;;;15.90;99.90;;;;;;7393723;19;20135;-74
2022/05/09 00:41:49;;;;;;;4.95;4.00;;;15.60;99.90;;;;;;7391378;19;20529;-76
2022/05/09 00:44:26;;;;;;;4.78;4.28;;;15.60;99.90;;;;;;7393810;19;20135;-77
2022/05/09 00:46:54;;;;;;;5.18;4.55;;;15.80;99.90;;;;;;7392314;19;20482;-74
2022/05/09 00:49:19;;;;;;;6.43;4.07;;;15.80;99.90;;;;;;7390514;19;20367;-77
2022/05/09 00:51:55;;;;;;;5.00;4.15;;;15.40;99.90;;;;;;7390270;19;20182;-76
2022/05/09 00:54:21;;;;;;;5.10;4.60;;;15.10;99.90;;;;;;7392214;19;20134;-77
2022/05/09 00:56:55;;;;;;;5.93;4.70;;;15.50;99.90;;;;;;7389275;19;20142;-77
2022/05/09 00:59:22;;;;;;;4.43;4.03;;;15.70;99.90;;;;;;7390295;19;20126;-77
2022/05/09 01:01:50;;;;;;;6.50;4.90;;;15.80;99.90;;;;;;7390295;19;20159;-77
2022/05/09 01:04:21;;;;;;;5.35;4.03;;;15.90;99.90;;;;;;7390333;19;20521;-77
2022/05/09 01:06:48;;;;;;;5.10;4.60;;;15.80;99.90;;;;;;7389803;19;20134;-75
2022/05/09 01:09:14;;;;;;;7.97;5.63;;;15.70;99.90;;;;;;7392815;19;20139;-74
2022/05/09 01:11:44;;;;;;;7.13;4.68;;;15.80;99.90;;;;;;7391771;19;20663;-74
2022/05/09 01:14:16;;;;;;;7.25;4.97;;;15.80;99.90;;;;;;7389872;19;20209;-75
2022/05/09 01:16:43;;;;;;;5.50;5.00;;;15.90;99.90;;;;;;7390327;19;20165;-75
2022/05/09 01:19:25;;;;;;;6.50;5.20;;;15.70;99.90;;;;;;7389499;19;20246;-75
2022/05/09 01:21:50;;;;;;;6.05;4.95;;;15.60;99.90;;;;;;7391371;19;20131;-80
2022/05/09 01:24:23;;;;;;;6.85;6.05;;;15.10;99.90;;;;;;7390973;19;20155;-77
2022/05/09 01:26:49;;;;;;;6.03;4.90;;;14.70;99.90;;;;;;7390696;19;20157;-77
2022/05/09 01:29:42;;;;;;;5.80;5.25;;;14.90;99.90;;;;;;7388336;19;20525;-78
2022/05/09 01:32:12;;;;;;;4.97;4.47;;;15.10;99.90;;;;;;7393876;19;20138;-75
2022/05/09 01:34:43;;;;;;;5.85;5.15;;;15.30;99.90;;;;;;7392598;19;20123;-75
2022/05/09 01:37:10;;;;;;;6.07;5.20;;;15.30;99.90;;;;;;7388220;19;20134;-75
2022/05/09 01:39:36;;;;;;;6.13;5.00;;;15.30;99.90;;;;;;7395139;19;20126;-76
2022/05/09 01:42:11;;;;;;;6.20;5.07;;;15.30;99.90;;;;;;7388540;19;20142;-76
2022/05/09 01:44:37;;;;;;;5.40;4.90;;;15.20;99.90;;;;;;7390782;19;20189;-74
2022/05/09 01:49:50;;;;;;;5.60;5.03;;;15.10;99.90;;;;;;7393609;19;20582;-74
2022/05/09 01:52:18;;;;;;;6.18;4.82;;;15.10;99.90;;;;;;7389913;19;20203;-75
2022/05/09 01:54:44;;;;;;;6.05;5.10;;;15.30;99.90;;;;;;7392035;19;20151;-75
2022/05/09 01:57:11;;;;;;;5.28;4.55;;;15.10;99.90;;;;;;7387852;19;20534;-75
2022/05/09 01:59:38;;;;;;;5.35;4.82;;;15.10;99.90;;;;;;7389192;19;20606;-77
2022/05/09 02:02:12;;;;;;;5.05;4.55;;;15.10;99.90;;;;;;7388030;19;20169;-75
2022/05/09 02:04:40;;;;;;;5.80;4.47;;;15.20;99.90;;;;;;7393804;19;20590;-75
2022/05/09 02:07:09;;;;;;;4.97;4.55;;;15.30;99.90;;;;;;7387444;19;20222;-75
2022/05/09 02:09:38;;;;;;;5.10;4.53;;;15.30;99.90;;;;;;7387242;19;20141;-75
2022/05/09 02:12:05;;;;;;;6.32;4.53;;;15.30;99.90;;;;;;7388978;19;20142;-77
2022/05/09 02:14:31;;;;;;;5.20;4.70;;;15.30;99.90;;;;;;7391329;19;20206;-77
2022/05/09 02:16:56;;;;;;;5.32;4.45;;;15.30;99.90;;;;;;7387286;19;20523;-77
2022/05/09 02:19:22;;;;;;;5.65;4.70;;;15.10;99.90;;;;;;7389094;19;20736;-77
2022/05/09 02:21:48;;;;;;;6.05;4.65;;;15.10;99.90;;;;;;7391685;19;20130;-77
2022/05/09 02:24:14;;;;;;;4.53;4.13;;;14.90;99.90;;;;;;7387253;19;20134;-75
2022/05/09 02:26:39;;;;;;;5.03;4.45;;;14.90;99.90;;;;;;7386681;19;20515;-77
2022/05/09 02:29:05;;;;;;;5.53;4.82;;;14.80;99.90;;;;;;7385850;19;20135;-77
2022/05/09 02:31:32;;;;;;;4.82;4.25;;;14.80;99.90;;;;;;7387112;19;20130;-75
2022/05/09 02:33:58;;;;;;;5.75;4.72;;;14.90;99.90;;;;;;7388711;19;20612;-77
2022/05/09 02:36:24;;;;;;;4.82;4.32;;;14.90;99.90;;;;;;7389004;19;20207;-77
2022/05/09 02:38:50;;;;;;;6.93;4.47;;;15.00;99.90;;;;;;7389183;19;20154;-77
2022/05/09 02:41:15;;;;;;;6.03;4.70;;;15.10;99.90;;;;;;7386720;19;20150;-77
2022/05/09 02:43:41;;;;;;;5.00;4.50;;;15.00;99.90;;;;;;7387020;19;20200;-74
2022/05/09 02:46:07;;;;;;;6.72;4.45;;;15.00;99.90;;;;;;7387628;19;20140;-76
2022/05/09 02:48:36;;;;;;;5.53;4.82;;;15.00;99.90;;;;;;7386484;19;20437;-75
2022/05/09 02:51:04;;;;;;;5.68;4.68;;;15.00;99.90;;;;;;7387740;19;20605;-74
2022/05/09 02:53:30;;;;;;;5.32;4.68;;;15.00;99.90;;;;;;7385208;19;20130;-77
2022/05/09 02:55:56;;;;;;;5.85;4.78;;;14.80;99.90;;;;;;7391826;19;20134;-74
2022/05/09 02:58:22;;;;;;;5.25;4.57;;;14.70;99.90;;;;;;7385857;19;20134;-75
2022/05/09 03:00:48;;;;;;;5.05;4.18;;;14.60;99.90;;;;;;7385777;19;20127;-76
2022/05/09 03:05:58;;;;;;;5.03;4.28;;;14.50;99.90;;;;;;7388571;19;20496;-77
2022/05/09 03:08:24;;;;;;;5.43;4.68;;;14.40;99.90;;;;;;7386220;19;20805;-77
2022/05/09 03:10:50;;;;;;;5.90;4.70;;;14.30;99.90;;;;;;7386202;19;20883;-77
2022/05/09 03:13:16;;;;;;;6.18;4.50;;;14.20;99.90;;;;;;7387324;19;20487;-77
2022/05/09 03:15:47;;;;;;;5.22;4.53;;;14.10;99.90;;;;;;7388011;19;20137;-77
2022/05/09 03:18:15;;;;;;;5.07;4.57;;;14.00;99.90;;;;;;7385294;19;20897;-75
2022/05/09 03:20:41;;;;;;;6.50;5.38;;;13.90;99.90;;;;;;7385487;19;20142;-75
2022/05/09 03:23:08;;;;;;;5.60;5.00;;;14.20;99.90;;;;;;7384926;19;20119;-76
2022/05/09 03:25:36;;;;;;;6.68;4.85;;;14.20;99.90;;;;;;7385826;19;20176;-77
2022/05/09 03:28:08;;;;;;;5.97;5.10;;;14.40;99.90;;;;;;7387550;19;20597;-76
2022/05/09 03:30:36;;;;;;;6.82;5.47;;;14.10;99.90;;;;;;7386057;19;20166;-75
2022/05/09 03:33:02;;;;;;;5.85;4.90;;;14.40;99.90;;;;;;7383961;19;20140;-75
2022/05/09 03:35:28;;;;;;;7.32;5.95;;;14.60;99.90;;;;;;7385689;19;20143;-77
2022/05/09 03:37:54;;;;;;;5.70;5.07;;;14.50;99.90;;;;;;7387023;19;20806;-75
2022/05/09 03:40:21;;;;;;;7.88;4.80;;;14.70;99.90;;;;;;7386038;19;20263;-76
2022/05/09 03:42:47;;;;;;;7.03;5.65;;;14.60;99.90;;;;;;7382808;19;20182;-75
2022/05/09 03:45:13;;;;;;;8.45;5.50;;;14.30;99.90;;;;;;7387046;19;20160;-77
2022/05/09 03:47:40;;;;;;;7.68;5.13;;;14.20;99.90;;;;;;7386667;19;20170;-74
2022/05/09 03:50:07;;;;;;;6.40;5.13;;;14.00;99.90;;;;;;7389816;19;20134;-77
2022/05/09 03:52:32;;;;;;;8.02;5.15;;;14.10;99.90;;;;;;7390618;19;20534;-75
2022/05/09 03:54:58;;;;;;;5.80;4.93;;;14.30;99.90;;;;;;7395166;19;20255;-77
2022/05/09 03:57:24;;;;;;;5.97;5.00;;;14.20;99.90;;;;;;7392957;19;20138;-76
2022/05/09 03:59:51;;;;;;;5.63;4.68;;;13.90;99.90;;;;;;7392407;19;20488;-77
2022/05/09 04:02:17;;;;;;;5.72;4.43;;;13.70;99.90;;;;;;7393940;19;20202;-77
2022/05/09 04:04:43;;;;;;;7.00;5.05;;;13.70;99.90;;;;;;7393687;19;20134;-77
2022/05/09 04:07:09;;;;;;;7.10;4.88;;;14.00;99.90;;;;;;7391723;19;20122;-75
2022/05/09 04:09:36;;;;;;;5.72;4.82;;;13.90;99.90;;;;;;7395240;19;20141;-77
2022/05/09 04:12:02;;;;;;;4.60;4.18;;;13.70;99.90;;;;;;7394537;19;20205;-78
2022/05/09 04:17:14;;;;;;;5.85;5.03;;;13.30;99.90;;;;;;7392984;19;20127;-76
2022/05/09 04:19:41;;;;;;;7.20;4.95;;;13.50;99.90;;;;;;7395828;19;20892;-78
2022/05/09 04:22:07;;;;;;;6.55;4.85;;;13.60;99.90;;;;;;7393981;19;20142;-78
2022/05/09 04:24:34;;;;;;;7.22;5.35;;;13.60;99.90;;;;;;7391258;19;20135;-78
2022/05/09 04:27:01;;;;;;;5.78;4.70;;;13.40;99.90;;;;;;7390188;19;20477;-76
2022/05/09 04:29:27;;;;;;;7.35;4.72;;;13.30;99.90;;;;;;7390237;19;20637;-75
2022/05/09 04:31:53;;;;;;;5.65;4.70;;;13.20;99.90;;;;;;7392340;19;20139;-78
2022/05/09 04:34:20;;;;;;;6.80;4.97;;;13.40;99.90;;;;;;7393881;19;20147;-74
2022/05/09 04:36:46;;;;;;;6.15;4.82;;;13.50;99.90;;;;;;7391338;19;20457;-74
2022/05/09 04:39:11;;;;;;;6.53;4.88;;;13.50;99.90;;;;;;7394755;19;20202;-77
2022/05/09 04:41:37;;;;;;;5.50;4.65;;;13.60;99.90;;;;;;7389712;19;20147;-77
2022/05/09 04:44:05;;;;;;;5.15;4.53;;;13.70;99.90;;;;;;7391443;19;20155;-78
2022/05/09 04:46:33;;;;;;;5.20;4.68;;;13.90;99.90;;;;;;7395738;19;20127;-75
2022/05/09 04:48:59;;;;;;;5.90;5.30;;;13.80;99.90;;;;;;7392458;19;20122;-74
2022/05/09 04:51:24;;;;;;;5.07;4.55;;;13.80;99.90;;;;;;7390265;19;20153;-79
2022/05/09 04:53:50;;;;;;;5.93;5.25;;;14.10;99.90;;;;;;7388732;19;20141;-77
2022/05/09 04:56:17;;;;;;;6.47;5.72;;;14.20;99.90;;;;;;7390602;19;20166;-75
2022/05/09 04:58:43;;;;;;;9.00;6.13;;;14.40;99.90;;;;;;7392549;19;20145;-77
2022/05/09 05:01:10;;;;;;;6.90;5.72;;;14.60;99.90;;;;;;7389923;19;20123;-77
2022/05/09 05:03:36;;;;;;;9.60;5.65;;;14.70;99.90;;;;;;7387359;19;20123;-78
2022/05/09 05:06:03;;;;;;;6.63;5.90;;;14.80;99.90;;;;;;7390229;19;20145;-77
2022/05/09 05:08:33;;;;;;;9.52;6.25;;;14.80;99.90;;;;;;7391515;19;20219;-77
2022/05/09 05:11:08;;;;;;;8.05;6.63;;;14.90;99.90;;;;;;7390050;19;20135;-74
2022/05/09 05:13:33;;;;;;;9.18;6.93;;;14.90;99.90;;;;;;7392918;19;20566;-76
2022/05/09 05:16:00;;;;;;;7.13;5.85;;;14.90;99.90;;;;;;7391027;19;20150;-78
2022/05/09 05:18:27;;;;;;;8.35;6.65;;;14.90;99.90;;;;;;7390966;19;20144;-78
2022/05/09 05:20:55;;;;;;;9.18;5.88;;;14.80;99.90;;;;;;7390173;19;20154;-76
2022/05/09 05:23:21;;;;;;;8.95;6.40;;;14.90;99.90;;;;;;7392481;19;20201;-74
2022/05/09 05:25:47;;;;;;;10.23;6.40;;;15.00;99.90;;;;;;7391051;19;20122;-78
2022/05/09 05:28:14;;;;;;;8.07;6.32;;;15.10;99.90;;;;;;7388577;19;20209;-76
2022/05/09 05:30:40;;;;;;;8.80;6.90;;;15.20;99.90;;;;;;7388840;19;20162;-75
2022/05/09 05:33:06;;;;;;;10.32;6.85;;;15.10;99.90;;;;;;7390477;19;20154;-75
2022/05/09 05:35:32;;;;;;;9.90;6.65;;;15.00;99.90;;;;;;7393021;19;20523;-75
2022/05/09 05:37:58;;;;;;;7.40;5.95;;;15.10;99.90;;;;;;7390158;19;20502;-75
2022/05/09 05:40:24;;;;;;;9.07;6.90;;;15.10;99.90;;;;;;7392927;19;20145;-74
2022/05/09 05:42:52;;;;;;;7.97;6.90;;;15.20;99.90;;;;;;7390505;19;20613;-75
2022/05/09 05:45:22;;;;;;;8.60;6.55;;;15.10;99.90;;;;;;7389709;19;20138;-75
2022/05/09 05:47:49;;;;;;;9.20;6.85;;;15.20;99.90;;;;;;7391654;19;20151;-75
2022/05/09 05:50:17;;;;;;;8.75;5.88;;;15.10;99.90;;;;;;7389226;19;20134;-74
2022/05/09 05:52:43;;;;;;;8.50;7.40;;;15.10;99.90;;;;;;7389089;19;20214;-75
2022/05/09 05:55:10;;;;;;;7.80;6.75;;;15.10;99.90;;;;;;7392476;19;20152;-74
2022/05/09 05:57:41;;;;;;;9.18;7.13;;;15.10;99.90;;;;;;7389170;19;20154;-77
2022/05/09 06:00:15;;;;;;;7.88;6.45;;;14.70;99.90;;;;;;7391142;19;20158;-77
2022/05/09 06:02:41;;;;;;;8.57;7.15;;;14.70;99.90;;;;;;7392242;19;20138;-76
2022/05/09 06:05:09;;;;;;;7.40;6.65;;;14.80;99.90;;;;;;7392511;19;20162;-77
2022/05/09 06:07:36;;;;;;;8.13;7.03;;;15.10;99.90;;;;;;7389607;19;20142;-76
2022/05/09 06:10:02;;;;;;;9.52;7.03;;;15.20;99.90;;;;;;7389595;19;20142;-76
2022/05/09 06:12:28;;;;;;;9.07;7.63;;;15.30;99.90;;;;;;7388486;19;20142;-75
2022/05/09 06:17:39;;;;;;;9.85;7.07;;;15.50;99.90;;;;;;7390393;19;20153;-76
2022/05/09 06:20:11;;;;;;;6.88;6.15;;;15.40;99.90;;;;;;7388937;19;21699;-75
2022/05/09 06:22:38;;;;;;;8.35;6.43;;;15.70;99.90;;;;;;7390465;19;20151;-75
2022/05/09 06:25:07;;;;;;;6.63;5.75;;;16.30;99.90;;;;;;7392250;19;20145;-76
2022/05/09 06:27:32;;;;;;;8.20;6.53;;;17.10;99.90;;;;;;7388901;19;20162;-75
2022/05/09 06:30:04;;;;;;;7.28;5.80;;;17.70;99.90;;;;;;7386932;19;20147;-76
2022/05/09 06:32:30;;;;;;;7.38;6.25;;;18.10;99.90;;;;;;7387072;19;20127;-75
2022/05/09 06:34:55;;;;;;;7.57;6.25;;;18.30;99.90;;;;;;7385805;19;20180;-75
2022/05/09 06:37:21;;;;;;;9.00;6.68;;;18.50;99.90;;;;;;7388345;19;20161;-74
2022/05/09 06:39:51;;;;;;;8.35;5.97;;;18.80;99.90;;;;;;7386142;19;20602;-75
2022/05/09 06:42:17;;;;;;;7.30;6.32;;;19.10;99.90;;;;;;7385430;19;20182;-76
2022/05/09 06:44:43;;;;;;;8.23;6.03;;;19.20;99.90;;;;;;7387590;19;20127;-75
2022/05/09 06:47:11;;;;;;;6.60;5.97;;;19.20;99.90;;;;;;7389118;19;20598;-75
2022/05/09 06:49:37;;;;;;;6.80;6.03;;;19.20;99.90;;;;;;7386898;19;20177;-76
2022/05/09 06:52:03;;;;;;;6.68;5.95;;;19.20;99.90;;;;;;7385652;19;20911;-75
2022/05/09 06:54:29;;;;;;;6.95;5.80;;;19.20;99.90;;;;;;7386827;19;20131;-74
2022/05/09 06:56:55;;;;;;;6.43;5.55;;;19.20;99.90;;;;;;7388086;19;20209;-74
2022/05/09 06:59:21;;;;;;;8.27;5.90;;;19.50;99.90;;;;;;7389429;19;20500;-75
2022/05/09 07:01:48;;;;;;;7.60;5.35;;;19.60;99.90;;;;;;7387624;19;20138;-75
2022/05/09 07:04:16;;;;;;;9.65;6.47;;;19.70;99.90;;;;;;7387484;19;20138;-76
2022/05/09 07:06:42;;;;;;;11.40;6.10;;;19.90;99.90;;;;;;7388635;19;20158;-76
2022/05/09 07:09:12;;;;;;;9.07;5.45;;;20.00;99.90;;;;;;7386841;19;20154;-77
2022/05/09 07:11:39;;;;;;;6.13;5.53;;;20.20;99.90;;;;;;7388170;19;20154;-78
2022/05/09 07:14:05;;;;;;;10.15;5.80;;;20.40;99.90;;;;;;7387923;19;20147;-78
2022/05/09 07:16:31;;;;;;;6.10;5.10;;;20.40;99.90;;;;;;7387911;19;20139;-78
2022/05/09 07:18:58;;;;;;;8.25;5.68;;;20.20;99.90;;;;;;7388076;19;20211;-78
2022/05/09 07:21:25;;;;;;;6.07;5.18;;;20.20;99.90;;;;;;7390477;19;20142;-77
2022/05/09 07:23:51;;;;;;;7.05;5.40;;;20.20;99.90;;;;;;7387708;19;20250;-76
2022/05/09 07:26:17;;;;;;;7.28;5.10;;;20.30;99.90;;;;;;7390728;19;20161;-79
2022/05/09 07:28:43;;;;;;;5.15;4.65;;;20.40;99.90;;;;;;7396339;19;20150;-76
2022/05/09 07:31:09;;;;;;;6.90;4.97;;;20.70;99.90;;;;;;7399491;19;20559;-76
2022/05/09 07:33:36;;;;;;;6.38;4.90;;;20.80;99.90;;;;;;7394180;19;20139;-76
2022/05/09 07:36:03;;;;;;;5.32;4.65;;;20.90;99.90;;;;;;7394538;19;20985;-77
2022/05/09 07:38:30;;;;;;;6.72;4.53;;;20.90;99.90;;;;;;7394051;19;20456;-78
2022/05/09 07:40:56;;;;;;;6.82;4.82;;;21.00;99.90;;;;;;7394142;19;20704;-77
2022/05/09 07:43:25;;;;;;;5.07;4.57;;;21.00;99.90;;;;;;7396140;19;20122;-75
2022/05/09 07:45:53;;;;;;;5.72;4.65;;;21.10;99.90;;;;;;7393732;19;20643;-77
2022/05/09 07:48:20;;;;;;;10.75;5.88;;;21.20;99.90;;;;;;7395930;19;20162;-76
2022/05/09 07:50:46;;;;;;;7.63;5.03;;;21.10;99.90;;;;;;7393184;19;20166;-76
2022/05/09 07:53:33;;;;;;;5.05;4.30;;;21.30;99.90;;;;;;7395034;19;20135;-77
2022/05/09 07:56:00;;;;;;;4.95;4.43;;;21.20;99.90;;;;;;7397040;19;20993;-78
2022/05/09 07:58:26;;;;;;;6.47;4.40;;;21.10;99.90;;;;;;7396932;19;20130;-77
2022/05/09 08:00:58;;;;;;;6.28;4.82;;;21.20;99.90;;;;;;7393907;19;20176;-80
2022/05/09 08:03:26;;;;;;;6.15;4.18;;;21.30;99.90;;;;;;7395314;19;20538;-80
2022/05/09 08:05:56;;;;;;;4.80;4.20;;;21.50;99.90;;;;;;7392919;19;20167;-77
2022/05/09 08:08:22;;;;;;;5.00;4.43;;;21.40;99.90;;;;;;7397354;19;20875;-78
2022/05/09 08:10:49;;;;;;;5.85;4.95;;;21.30;99.90;;;;;;7396413;19;20977;-80
2022/05/09 08:13:17;;;;;;;6.72;4.80;;;21.10;99.90;;;;;;7394105;19;20154;-76
2022/05/09 08:15:45;;;;;;;5.82;4.47;;;21.20;99.90;;;;;;7395035;19;20324;-81
2022/05/09 08:18:13;;;;;;;5.40;4.47;;;21.50;99.90;;;;;;7398929;19;20138;-78
2022/05/09 08:20:42;;;;;;;6.25;4.18;;;21.90;99.90;;;;;;7394972;19;20163;-81
2022/05/09 08:23:11;;;;;;;5.43;4.30;;;22.00;99.90;;;;;;7397129;19;20135;-78
2022/05/09 08:25:39;;;;;;;5.25;4.35;;;21.90;99.90;;;;;;7394532;19;20167;-78
2022/05/09 08:28:07;;;;;;;5.55;4.82;;;21.70;99.90;;;;;;7395287;19;20139;-77
2022/05/09 08:30:34;;;;;;;11.82;5.28;;;21.90;99.90;;;;;;7389006;19;20197;-78
2022/05/09 08:33:01;;;;;;;8.48;5.38;;;21.80;99.90;;;;;;7392751;19;20154;-79
2022/05/09 08:35:27;;;;;;;7.72;4.97;;;21.60;99.90;;;;;;7391873;19;20127;-79
2022/05/09 08:37:53;;;;;;;7.95;4.65;;;21.60;99.90;;;;;;7390156;19;20532;-77
2022/05/09 08:40:36;;;;;;;7.18;4.40;;;21.50;99.90;;;;;;7396352;19;20151;-80
2022/05/09 08:43:25;;;;;;;6.65;4.57;;;21.40;99.90;;;;;;7395419;19;20207;-77
2022/05/09 08:46:18;;;;;;;5.97;4.32;;;21.20;99.90;;;;;;7390167;19;20378;-76
2022/05/09 08:49:22;;;;;;;6.13;5.13;;;21.00;99.90;;;;;;7390855;19;20222;-77
2022/05/09 08:52:00;;;;;;;5.80;4.97;;;20.90;99.90;;;;;;7391411;19;20491;-75
2022/05/09 08:54:26;;;;;;;5.95;4.53;;;20.90;99.90;;;;;;7393236;19;20170;-76
2022/05/09 08:56:58;;;;;;;9.10;5.32;;;21.10;99.90;;;;;;7392393;19;20222;-78
2022/05/09 08:59:31;;;;;;;6.47;5.05;;;21.20;99.90;;;;;;7389694;19;20478;-78
2022/05/09 09:02:14;;;;;;;7.90;5.07;;;21.20;99.90;;;;;;7392219;19;20700;-78
2022/05/09 09:04:45;;;;;;;8.38;4.43;;;21.30;99.90;;;;;;7396924;19;20450;-79
2022/05/09 09:07:28;;;;;;;4.95;3.70;;;21.60;99.90;;;;;;7392482;19;20854;-79
2022/05/09 09:10:16;;;;;;;5.78;3.90;;;21.70;99.90;;;;;;7389458;19;20601;-76
2022/05/09 09:13:00;;;;;;;4.43;3.80;;;21.50;99.90;;;;;;7390362;19;20478;-76
2022/05/09 09:15:49;;;;;;;5.20;3.78;;;21.50;99.90;;;;;;7391055;19;20131;-75
2022/05/09 09:18:33;;;;;;;5.03;4.05;;;21.60;99.90;;;;;;7389693;19;20122;-79
2022/05/09 09:21:29;;;;;;;4.10;3.70;;;21.60;99.90;;;;;;7389562;19;20164;-77
2022/05/09 09:24:05;;;;;;;6.15;3.85;;;21.60;99.90;;;;;;7390783;19;20473;-78
2022/05/09 09:27:01;;;;;;;3.97;3.58;;;21.80;99.90;;;;;;7390687;19;20383;-77
2022/05/09 09:29:41;;;;;;;4.72;3.72;;;21.90;99.90;;;;;;7388041;19;20522;-76
2022/05/09 09:32:11;;;;;;;4.85;4.35;;;21.80;99.90;;;;;;7387905;19;20147;-77
2022/05/09 09:35:30;;;;;;;5.63;5.00;;;21.80;99.90;;;;;;7388910;19;20126;-76
2022/05/09 09:38:29;;;;;;;5.55;4.38;;;22.20;99.90;;;;;;7388063;19;20134;-80
2022/05/09 09:40:55;;;;;;;4.30;3.67;;;22.30;99.90;;;;;;7388547;19;20181;-81
2022/05/09 09:43:22;;;;;;;4.45;3.80;;;22.00;99.90;;;;;;7388727;19;20146;-78
2022/05/09 09:46:02;;;;;;;4.53;4.03;;;22.20;99.90;;;;;;7388814;19;20146;-77
2022/05/09 09:48:30;;;;;;;5.03;3.63;;;22.30;99.90;;;;;;7388452;19;20161;-81
2022/05/09 09:51:00;;;;;;;4.63;4.00;;;22.40;99.90;;;;;;7387149;19;20153;-79
2022/05/09 09:53:34;;;;;;;6.10;3.53;;;22.10;99.90;;;;;;7386964;19;20126;-79
2022/05/09 09:56:21;;;;;;;6.57;4.70;;;21.90;99.90;;;;;;7391454;19;20598;-76
2022/05/09 09:58:49;;;;;;;5.95;3.40;;;21.70;99.90;;;;;;7387914;19;20174;-79
2022/05/09 10:01:24;;;;;;;6.15;3.65;;;21.60;99.90;;;;;;7389561;19;20154;-77
2022/05/09 10:04:06;;;;;;;5.45;4.50;;;21.60;99.90;;;;;;7388937;19;20164;-77
2022/05/09 10:06:33;;;;;;;5.20;3.22;;;21.80;99.90;;;;;;7386860;19;20590;-78
2022/05/09 10:09:06;;;;;;;3.70;3.33;;;21.90;99.90;;;;;;7393388;19;20697;-79
2022/05/09 10:11:33;;;;;;;4.75;3.70;;;22.20;99.90;;;;;;7386411;19;20438;-80
2022/05/09 10:14:05;;;;;;;3.67;3.00;;;22.40;99.90;;;;;;7387922;19;20495;-76
2022/05/09 10:16:45;;;;;;;4.00;3.45;;;22.50;99.90;;;;;;7389910;19;20218;-74
2022/05/09 10:19:27;;;;;;;3.33;2.97;;;22.60;99.90;;;;;;7386515;19;20157;-75
2022/05/09 10:24:49;;;;;;;3.50;3.17;;;22.40;99.90;;;;;;7391877;19;20135;-80
2022/05/09 10:27:17;;;;;;;3.67;2.95;;;22.70;99.90;;;;;;7389614;19;20452;-77
2022/05/09 10:29:45;;;;;;;4.90;3.47;;;22.90;99.90;;;;;;7383936;19;20182;-78
2022/05/09 10:32:14;;;;;;;5.10;3.78;;;23.00;99.90;;;;;;7390515;19;20202;-80
2022/05/09 10:35:09;;;;;;;4.43;3.70;;;22.90;99.90;;;;;;7389213;19;20137;-79
2022/05/09 10:38:01;;;;;;;3.50;3.00;;;23.00;99.90;;;;;;7390124;19;20134;-77
2022/05/09 10:40:49;;;;;;;3.22;2.92;;;23.20;99.90;;;;;;7387923;19;20534;-75
2022/05/09 10:43:22;;;;;;;3.92;3.17;;;23.20;99.90;;;;;;7392055;19;20138;-80
2022/05/09 10:45:50;;;;;;;4.78;3.03;;;23.20;99.90;;;;;;7391482;19;20473;-79
2022/05/09 10:48:21;;;;;;;3.72;3.38;;;23.30;99.90;;;;;;7392416;19;20126;-76
2022/05/09 10:50:53;;;;;;;3.75;2.80;;;23.20;99.90;;;;;;7390932;19;20124;-76
2022/05/09 10:53:42;;;;;;;3.78;3.30;;;23.00;99.90;;;;;;7388549;19;20456;-76
2022/05/09 10:56:24;;;;;;;3.95;3.50;;;23.10;99.90;;;;;;7396693;19;20380;-79
2022/05/09 10:59:01;;;;;;;4.22;2.92;;;23.10;99.90;;;;;;7386007;19;20137;-76
2022/05/09 11:01:36;;;;;;;5.03;3.20;;;23.30;99.90;;;;;;7386977;19;20138;-81
2022/05/09 11:04:03;;;;;;;3.33;3.00;;;23.30;99.90;;;;;;7391310;19;20187;-79
2022/05/09 11:06:39;;;;;;;4.03;3.58;;;23.60;99.20;;;;;;7385640;19;20142;-82
2022/05/09 11:09:30;;;;;;;4.57;3.85;;;23.50;99.90;;;;;;7386666;19;20126;-75
2022/05/09 11:12:18;;;;;;;4.22;3.63;;;23.20;99.90;;;;;;7390432;19;20609;-76
2022/05/09 11:14:58;;;;;;;5.22;4.15;;;23.00;99.90;;;;;;7382967;19;20408;-78
2022/05/09 11:17:39;;;;;;;3.88;3.50;;;22.70;99.90;;;;;;7396905;19;20155;-80
2022/05/09 11:20:20;;;;;;;4.40;3.35;;;22.80;99.90;;;;;;7389667;19;20145;-78
2022/05/09 11:23:23;;;;;;;3.20;2.90;;;22.90;99.90;;;;;;7392339;19;20130;-76
2022/05/09 11:26:02;;;;;;;3.28;2.97;;;22.90;99.90;;;;;;7388957;19;20687;-78
2022/05/09 11:28:49;;;;;;;3.30;2.75;;;22.90;99.90;;;;;;7387193;19;20154;-77
2022/05/09 11:31:47;;;;;;;3.47;2.80;;;23.00;99.90;;;;;;7388512;19;20222;-75
2022/05/09 11:34:21;;;;;;;4.32;3.15;;;23.10;99.90;;;;;;7385265;19;20655;-75
2022/05/09 11:36:50;;;;;;;4.50;2.63;;;23.30;99.70;;;;;;7393475;19;20138;-76
2022/05/09 11:39:51;;;;;;;4.78;3.03;;;23.50;99.40;;;;;;7389756;19;20174;-76
2022/05/09 11:45:43;;;;;;;3.22;2.92;;;23.40;98.90;;;;;;7384669;19;20218;-78
2022/05/09 11:48:31;;;;;;;3.22;2.90;;;23.20;99.30;;;;;;7389665;19;20131;-77
2022/05/09 11:51:22;;;;;;;4.95;3.30;;;23.00;99.70;;;;;;7389903;19;20150;-78
2022/05/09 11:53:57;;;;;;;4.70;2.78;;;23.00;99.90;;;;;;7389006;19;20167;-75
2022/05/09 11:56:24;;;;;;;4.65;3.28;;;23.00;99.80;;;;;;7386065;19;20154;-75
2022/05/09 11:58:50;;;;;;;3.30;2.80;;;23.20;99.80;;;;;;7389429;19;20139;-76
2022/05/09 12:01:16;;;;;;;4.47;2.90;;;23.60;98.90;;;;;;7390205;19;20277;-78
2022/05/09 12:03:42;;;;;;;4.80;2.92;;;23.70;97.90;;;;;;7387672;19;20673;-80
2022/05/09 12:06:28;;;;;;;4.57;2.90;;;23.70;97.90;;;;;;7384383;19;20147;-76
2022/05/09 12:08:56;;;;;;;4.97;2.50;;;23.70;97.80;;;;;;7386369;19;20163;-76
2022/05/09 12:11:46;;;;;;;3.13;2.67;;;23.80;97.80;;;;;;7386545;19;20149;-76
2022/05/09 12:14:39;;;;;;;3.33;2.65;;;24.00;97.50;;;;;;7392489;19;20131;-78
2022/05/09 12:17:31;;;;;;;3.53;2.42;;;23.80;97.40;;;;;;7396902;19;20208;-79
2022/05/09 12:19:57;;;;;;;3.85;2.72;;;23.70;97.20;;;;;;7390674;19;20371;-77
2022/05/09 12:22:23;;;;;;;2.67;2.47;;;23.70;96.70;;;;;;7388286;19;20145;-76
2022/05/09 12:24:49;;;;;;;4.10;2.80;;;23.70;96.40;;;;;;7390736;19;20214;-75
2022/05/09 12:27:45;;;;;;;3.90;2.55;;;23.60;96.70;;;;;;7407346;19;20617;-78
2022/05/09 12:30:15;;;;;;;5.78;2.60;;;23.60;97.30;;;;;;7388397;19;20850;-77
2022/05/09 12:32:44;;;;;;;3.85;3.08;;;23.60;97.20;;;;;;7393312;19;20202;-78
2022/05/09 12:35:12;;;;;;;7.68;3.00;;;23.70;97.00;;;;;;7392205;19;20135;-78
2022/05/09 12:37:45;;;;;;;3.05;2.35;;;23.70;97.20;;;;;;7392667;19;20158;-79
2022/05/09 12:40:23;;;;;;;4.00;2.60;;;23.70;97.10;;;;;;7393265;19;20137;-77
2022/05/09 12:42:59;;;;;;;3.20;2.72;;;23.80;96.70;;;;;;7389901;19;20241;-79
2022/05/09 12:45:26;;;;;;;4.80;2.80;;;23.90;96.60;;;;;;7390921;19;20233;-80
2022/05/09 12:47:53;;;;;;;2.60;2.40;;;24.10;96.30;;;;;;7390209;19;20210;-78
2022/05/09 12:50:31;;;;;;;2.90;2.60;;;24.10;95.40;;;;;;7395630;19;20147;-79
2022/05/09 12:53:07;;;;;;;3.15;2.85;;;24.10;95.60;;;;;;7389305;19;20135;-77
2022/05/09 12:55:52;;;;;;;3.13;2.58;;;24.20;95.40;;;;;;7391382;19;20157;-84
2022/05/09 12:58:22;;;;;;;2.80;2.45;;;24.10;96.10;;;;;;7392010;19;20142;-76
2022/05/09 13:00:48;;;;;;;4.07;2.95;;;24.20;95.90;;;;;;7392988;19;20577;-77
2022/05/09 13:03:16;;;;;;;4.13;2.42;;;24.20;95.50;;;;;;7395056;19;20559;-76
2022/05/09 13:05:44;;;;;;;3.58;2.55;;;24.20;95.90;;;;;;7393767;19;20130;-78
2022/05/09 13:08:13;;;;;;;3.55;3.10;;;24.20;95.80;;;;;;7390809;19;20143;-77
2022/05/09 13:11:19;;;;;;;5.03;3.67;;;24.20;96.00;;;;;;7403829;19;20203;-79
2022/05/09 13:14:11;;;;;;;3.42;3.10;;;24.30;95.40;;;;;;7388651;19;20161;-76
2022/05/09 13:16:39;;;;;;;3.90;3.00;;;24.20;95.60;;;;;;7395155;19;20169;-76
2022/05/09 13:19:06;;;;;;;3.00;2.63;;;24.10;95.60;;;;;;7392180;19;20150;-75
2022/05/09 13:21:38;;;;;;;2.75;2.40;;;24.00;96.00;;;;;;7391517;19;20161;-79